createdAt,value
2022-10-05T00:00:47.128Z,18.17
2022-10-05T00:03:16.429Z,18.09
2022-10-05T00:05:47.586Z,18.04
2022-10-05T00:08:20.901Z,18.10
2022-10-05T00:10:50.745Z,18.15
2022-10-05T00:13:24.071Z,17.95
2022-10-05T00:15:59.318Z,18.00
2022-10-05T00:18:28.862Z,17.86
2022-10-05T00:20:58.192Z,17.98
2022-10-05T00:23:33.915Z,17.96
2022-10-05T00:26:12.669Z,17.86
2022-10-05T00:28:43.258Z,17.82
2022-10-05T00:31:20.963Z,17.67
2022-10-05T00:33:50.835Z,17.78
2022-10-05T00:36:20.427Z,17.75
2022-10-05T00:38:49.694Z,17.72
2022-10-05T00:41:25.544Z,17.68
2022-10-05T00:44:29.222Z,17.56
2022-10-05T00:47:04.193Z,17.49
2022-10-05T00:50:10.734Z,17.66
2022-10-05T00:52:52.929Z,17.65
2022-10-05T00:55:33.412Z,17.65
2022-10-05T00:58:18.452Z,17.63
2022-10-05T01:01:01.633Z,17.62
2022-10-05T01:03:41.063Z,17.59
2022-10-05T01:06:22.630Z,17.46
2022-10-05T01:09:04.011Z,17.49
2022-10-05T01:11:42.658Z,17.29
2022-10-05T01:14:20.403Z,17.41
2022-10-05T01:16:58.478Z,17.51
2022-10-05T01:20:06.516Z,17.39
2022-10-05T01:22:56.646Z,17.46
2022-10-05T01:25:32.126Z,17.27
2022-10-05T01:28:10.897Z,17.29
2022-10-05T01:30:49.570Z,17.34
2022-10-05T01:33:26.738Z,17.26
2022-10-05T01:36:04.394Z,16.98
2022-10-05T01:38:46.359Z,16.87
2022-10-05T01:41:27.750Z,16.55
2022-10-05T01:44:04.508Z,16.44
2022-10-05T01:46:44.604Z,16.40
2022-10-05T01:49:35.068Z,16.28
2022-10-05T01:52:25.339Z,16.00
2022-10-05T01:55:08.645Z,15.89
2022-10-05T01:57:55.559Z,15.90
2022-10-05T02:00:28.430Z,16.05
2022-10-05T02:03:06.048Z,16.04
2022-10-05T02:05:42.345Z,16.05
2022-10-05T02:08:16.835Z,16.10
2022-10-05T02:10:52.660Z,16.08
2022-10-05T02:13:31.414Z,16.15
2022-10-05T02:16:05.672Z,16.08
2022-10-05T02:18:45.235Z,16.04
2022-10-05T02:21:15.406Z,16.03
2022-10-05T02:23:47.600Z,16.07
2022-10-05T02:26:18.026Z,16.06
2022-10-05T02:28:53.668Z,16.03
2022-10-05T02:31:30.579Z,16.07
2022-10-05T02:34:38.633Z,16.03
2022-10-05T02:37:39.410Z,16.08
2022-10-05T02:40:23.372Z,16.06
2022-10-05T02:43:06.762Z,15.93
2022-10-05T02:45:45.690Z,16.07
2022-10-05T02:48:25.168Z,16.03
2022-10-05T02:51:04.976Z,16.01
2022-10-05T02:53:45.186Z,15.90
2022-10-05T02:56:27.580Z,15.95
2022-10-05T02:59:09.546Z,15.84
2022-10-05T03:01:48.621Z,15.88
2022-10-05T03:04:30.668Z,15.75
2022-10-05T03:07:13.514Z,15.87
2022-10-05T03:09:55.711Z,15.83
2022-10-05T03:12:48.827Z,15.65
2022-10-05T03:15:43.905Z,15.65
2022-10-05T03:18:26.344Z,15.64
2022-10-05T03:21:14.343Z,15.56
2022-10-05T03:24:03.825Z,15.45
2022-10-05T03:26:45.408Z,15.38
2022-10-05T03:29:31.424Z,15.29
2022-10-05T03:32:14.485Z,15.33
2022-10-05T03:34:52.009Z,15.08
2022-10-05T03:37:29.855Z,15.08
2022-10-05T03:40:07.585Z,15.11
2022-10-05T03:42:53.081Z,14.99
2022-10-05T03:45:29.823Z,14.95
2022-10-05T03:48:09.794Z,14.95
2022-10-05T03:50:51.106Z,14.75
2022-10-05T03:53:24.690Z,14.84
2022-10-05T03:56:03.126Z,14.90
2022-10-05T03:58:42.334Z,14.84
2022-10-05T04:01:18.569Z,14.75
2022-10-05T04:03:52.921Z,14.70
2022-10-05T04:06:26.852Z,14.68
2022-10-05T04:09:04.049Z,14.71
2022-10-05T04:11:39.450Z,14.70
2022-10-05T04:14:19.064Z,14.63
2022-10-05T04:16:56.227Z,14.66
2022-10-05T04:19:32.802Z,14.54
2022-10-05T04:22:11.195Z,14.52
2022-10-05T04:24:49.835Z,14.50
2022-10-05T04:27:23.437Z,14.26
2022-10-05T04:30:02.098Z,14.40
2022-10-05T04:32:40.137Z,14.40
2022-10-05T04:35:46.546Z,14.41
2022-10-05T04:38:48.323Z,14.37
2022-10-05T04:41:43.283Z,14.38
2022-10-05T04:44:43.377Z,14.34
2022-10-05T04:47:45.878Z,14.33
2022-10-05T04:50:30.166Z,14.24
2022-10-05T04:53:22.565Z,14.13
2022-10-05T04:55:59.352Z,14.12
2022-10-05T04:58:57.297Z,14.06
2022-10-05T05:01:51.491Z,14.14
2022-10-05T05:04:53.184Z,14.10
2022-10-05T05:07:41.409Z,14.00
2022-10-05T05:10:54.617Z,14.08
2022-10-05T05:14:17.905Z,13.99
2022-10-05T05:16:53.878Z,14.07
2022-10-05T05:19:40.777Z,14.01
2022-10-05T05:22:25.007Z,13.92
2022-10-05T05:25:20.115Z,13.99
2022-10-05T05:27:56.100Z,13.93
2022-10-05T05:30:40.868Z,13.90
2022-10-05T05:33:23.569Z,13.86
2022-10-05T05:36:42.925Z,14.00
2022-10-05T05:39:29.002Z,13.96
2022-10-05T05:42:07.946Z,13.96
2022-10-05T05:44:44.452Z,13.90
2022-10-05T05:47:21.802Z,13.93
2022-10-05T05:50:13.981Z,13.87
2022-10-05T05:52:48.197Z,13.96
2022-10-05T05:55:29.764Z,13.92
2022-10-05T05:58:06.019Z,13.94
2022-10-05T06:00:44.300Z,13.93
2022-10-05T06:03:20.441Z,13.91
2022-10-05T06:05:54.209Z,13.93
2022-10-05T06:08:34.905Z,13.76
2022-10-05T06:11:19.050Z,13.88
2022-10-05T06:13:49.329Z,13.89
2022-10-05T06:16:24.604Z,13.85
2022-10-05T06:19:00.522Z,13.85
2022-10-05T06:21:37.047Z,13.73
2022-10-05T06:24:16.471Z,13.93
2022-10-05T06:27:36.729Z,13.84
2022-10-05T06:30:13.177Z,13.90
2022-10-05T06:33:09.870Z,13.81
2022-10-05T06:36:03.273Z,13.83
2022-10-05T06:39:03.183Z,13.87
2022-10-05T06:41:47.656Z,13.85
2022-10-05T06:44:23.462Z,13.79
2022-10-05T06:47:18.103Z,13.81
2022-10-05T06:50:21.735Z,13.82
2022-10-05T06:53:27.307Z,13.85
2022-10-05T06:56:05.395Z,13.82
2022-10-05T06:58:58.010Z,13.86
2022-10-05T07:01:45.752Z,13.77
2022-10-05T07:04:42.943Z,13.76
2022-10-05T07:07:23.807Z,13.86
2022-10-05T07:10:10.271Z,13.86
2022-10-05T07:12:55.644Z,13.92
2022-10-05T07:15:40.206Z,13.83
2022-10-05T07:18:51.697Z,13.90
2022-10-05T07:21:34.526Z,13.81
2022-10-05T07:24:21.942Z,13.94
2022-10-05T07:27:05.004Z,13.95
2022-10-05T07:29:42.169Z,14.00
2022-10-05T07:32:28.316Z,14.00
2022-10-05T07:35:08.913Z,14.02
2022-10-05T07:37:57.336Z,14.07
2022-10-05T07:40:39.384Z,14.04
2022-10-05T07:43:45.332Z,14.05
2022-10-05T07:46:33.390Z,14.09
2022-10-05T07:49:09.000Z,14.13
2022-10-05T07:51:42.204Z,14.15
2022-10-05T07:54:21.793Z,14.05
2022-10-05T07:56:59.885Z,14.08
2022-10-05T07:59:37.488Z,14.01
2022-10-05T08:02:20.453Z,14.11
2022-10-05T08:05:00.764Z,14.06
2022-10-05T08:07:33.040Z,14.05
2022-10-05T08:10:17.974Z,14.13
2022-10-05T08:13:01.520Z,13.99
2022-10-05T08:15:39.481Z,14.00
2022-10-05T08:18:20.743Z,14.08
2022-10-05T08:20:53.800Z,13.98
2022-10-05T08:23:36.108Z,14.05
2022-10-05T08:26:17.744Z,14.03
2022-10-05T08:28:55.577Z,14.05
2022-10-05T08:31:30.173Z,13.92
2022-10-05T08:34:20.193Z,13.91
2022-10-05T08:37:03.265Z,13.93
2022-10-05T08:39:38.539Z,14.10
2022-10-05T08:43:03.047Z,13.99
2022-10-05T08:46:07.020Z,13.95
2022-10-05T08:49:19.995Z,14.08
2022-10-05T08:52:26.002Z,14.04
2022-10-05T08:55:45.859Z,14.06
2022-10-05T08:58:54.947Z,14.12
2022-10-05T09:01:36.743Z,14.13
2022-10-05T09:04:46.076Z,14.15
2022-10-05T09:07:36.674Z,14.14
2022-10-05T09:10:45.119Z,13.68
2022-10-05T09:14:04.034Z,14.23
2022-10-05T09:16:56.041Z,14.22
2022-10-05T09:20:16.612Z,14.18
2022-10-05T09:23:15.126Z,14.08
2022-10-05T09:25:58.850Z,14.07
2022-10-05T09:28:40.356Z,14.11
2022-10-05T09:31:40.995Z,14.15
2022-10-05T09:35:00.175Z,14.14
2022-10-05T09:37:53.810Z,14.20
2022-10-05T09:41:16.596Z,14.18
2022-10-05T09:44:50.265Z,14.26
2022-10-05T09:47:53.968Z,14.28
2022-10-05T09:51:45.986Z,14.37
2022-10-05T09:55:35.806Z,14.44
2022-10-05T09:58:58.579Z,14.43
2022-10-05T10:01:46.540Z,14.65
2022-10-05T10:04:35.467Z,14.85
2022-10-05T10:07:50.319Z,14.92
2022-10-05T10:10:56.445Z,14.99
2022-10-05T10:14:18.590Z,15.04
2022-10-05T10:17:37.963Z,15.02
2022-10-05T10:20:31.046Z,14.99
2022-10-05T10:23:24.539Z,15.10
2022-10-05T10:26:27.541Z,15.08
2022-10-05T10:29:49.073Z,15.36
2022-10-05T10:32:57.010Z,15.53
2022-10-05T10:35:36.018Z,15.47
2022-10-05T10:38:41.441Z,15.71
2022-10-05T10:41:52.467Z,16.07
2022-10-05T10:45:29.822Z,16.36
2022-10-05T10:48:05.077Z,16.36
2022-10-05T10:51:18.667Z,16.59
2022-10-05T10:54:12.695Z,16.62
2022-10-05T10:57:04.526Z,16.57
2022-10-05T11:00:19.787Z,16.29
2022-10-05T11:03:32.780Z,16.09
2022-10-05T11:06:29.155Z,15.98
2022-10-05T11:09:44.528Z,15.73
2022-10-05T11:13:00.519Z,15.78
2022-10-05T11:15:54.680Z,16.61
2022-10-05T11:18:40.508Z,17.47
2022-10-05T11:21:36.584Z,17.88
2022-10-05T11:24:48.638Z,18.36
2022-10-05T11:27:56.470Z,18.26
2022-10-05T11:30:55.551Z,17.72
2022-10-05T11:34:15.903Z,17.54
2022-10-05T11:37:26.386Z,17.21
2022-10-05T11:40:34.430Z,17.67
2022-10-05T11:43:41.839Z,17.71
2022-10-05T11:46:20.443Z,17.42
2022-10-05T11:49:15.157Z,16.96
2022-10-05T11:51:54.001Z,16.72
2022-10-05T11:55:11.653Z,17.26
2022-10-05T11:57:52.934Z,17.79
2022-10-05T12:00:26.278Z,18.60
2022-10-05T12:03:20.370Z,19.04
2022-10-05T12:06:23.557Z,19.73
2022-10-05T12:09:07.552Z,19.96
2022-10-05T12:12:03.160Z,20.27
2022-10-05T12:14:50.696Z,20.46
2022-10-05T12:17:30.246Z,20.20
2022-10-05T12:20:03.480Z,20.15
2022-10-05T12:22:39.603Z,20.32
2022-10-05T12:25:26.835Z,20.47
2022-10-05T12:28:03.713Z,20.84
2022-10-05T12:30:58.609Z,20.61
2022-10-05T12:33:36.064Z,20.80
2022-10-05T12:36:13.265Z,21.48
2022-10-05T12:38:52.620Z,21.32
2022-10-05T12:41:26.933Z,21.15
2022-10-05T12:44:18.381Z,20.82
2022-10-05T12:47:05.635Z,20.12
2022-10-05T12:50:10.621Z,19.22
2022-10-05T12:52:57.261Z,18.89
2022-10-05T12:55:35.308Z,18.52
2022-10-05T12:58:22.130Z,17.96
2022-10-05T13:01:02.469Z,17.57
2022-10-05T13:03:41.744Z,16.11
2022-10-05T13:06:21.815Z,15.84
2022-10-05T13:08:58.029Z,14.87
2022-10-05T13:11:38.663Z,14.18
2022-10-05T13:14:22.175Z,13.81
2022-10-05T13:16:59.508Z,13.55
2022-10-05T13:19:40.530Z,13.50
2022-10-05T13:22:33.763Z,13.21
2022-10-05T13:25:19.838Z,13.06
2022-10-05T13:28:06.481Z,12.86
2022-10-05T13:30:37.028Z,12.79
2022-10-05T13:33:18.036Z,12.49
2022-10-05T13:35:54.307Z,12.49
2022-10-05T13:38:44.882Z,12.36
2022-10-05T13:41:27.310Z,12.75
2022-10-05T13:44:10.582Z,13.65
2022-10-05T13:46:48.506Z,14.47
2022-10-05T13:49:27.076Z,15.31
2022-10-05T13:52:04.347Z,16.04
2022-10-05T13:54:44.107Z,16.84
2022-10-05T13:57:30.086Z,17.18
2022-10-05T14:00:03.082Z,17.37
2022-10-05T14:02:44.749Z,17.73
2022-10-05T14:05:21.567Z,18.16
2022-10-05T14:07:58.592Z,18.35
2022-10-05T14:10:39.289Z,18.53
2022-10-05T14:13:27.503Z,18.72
2022-10-05T14:16:19.284Z,18.96
2022-10-05T14:19:12.353Z,18.95
2022-10-05T14:21:50.919Z,19.15
2022-10-05T14:24:42.279Z,19.23
2022-10-05T14:27:24.372Z,18.57
2022-10-05T14:30:00.925Z,18.23
2022-10-05T14:32:44.496Z,17.60
2022-10-05T14:35:16.793Z,16.89
2022-10-05T14:37:52.247Z,16.60
2022-10-05T14:40:30.499Z,16.30
2022-10-05T14:43:18.639Z,15.92
2022-10-05T14:45:57.641Z,15.67
2022-10-05T14:48:29.117Z,15.76
2022-10-05T14:51:03.427Z,16.08
2022-10-05T14:53:41.885Z,16.60
2022-10-05T14:56:47.440Z,17.06
2022-10-05T14:59:43.664Z,17.26
2022-10-05T15:02:55.681Z,17.36
2022-10-05T15:05:32.666Z,16.97
2022-10-05T15:08:21.297Z,17.10
2022-10-05T15:10:57.840Z,16.61
2022-10-05T15:13:33.297Z,16.25
2022-10-05T15:16:13.076Z,16.02
2022-10-05T15:18:50.114Z,15.74
2022-10-05T15:21:46.322Z,15.61
2022-10-05T15:24:21.516Z,15.40
2022-10-05T15:26:54.563Z,15.27
2022-10-05T15:29:54.996Z,15.47
2022-10-05T15:32:44.512Z,15.35
2022-10-05T15:35:55.519Z,15.57
2022-10-05T15:38:26.803Z,15.74
2022-10-05T15:41:14.912Z,15.76
2022-10-05T15:44:06.562Z,15.77
2022-10-05T15:46:47.914Z,15.47
2022-10-05T15:49:29.288Z,15.66
2022-10-05T15:52:07.479Z,15.59
2022-10-05T15:55:22.206Z,15.54
2022-10-05T15:58:08.469Z,15.21
2022-10-05T16:00:45.976Z,15.36
2022-10-05T16:03:26.905Z,15.11
2022-10-05T16:06:24.097Z,15.10
2022-10-05T16:09:14.162Z,15.14
2022-10-05T16:12:03.399Z,15.11
2022-10-05T16:14:55.078Z,15.10
2022-10-05T16:17:48.085Z,15.19
2022-10-05T16:20:36.919Z,14.98
2022-10-05T16:23:19.793Z,15.04
2022-10-05T16:25:59.538Z,14.86
2022-10-05T16:28:47.544Z,14.76
2022-10-05T16:31:23.341Z,14.62
2022-10-05T16:34:06.678Z,14.61
2022-10-05T16:36:53.234Z,14.50
2022-10-05T16:39:52.800Z,14.51
2022-10-05T16:42:46.422Z,14.59
2022-10-05T16:45:30.790Z,14.47
2022-10-05T16:48:09.735Z,14.44
2022-10-05T16:50:50.486Z,14.45
2022-10-05T16:53:24.265Z,14.27
2022-10-05T16:56:01.907Z,14.21
2022-10-05T16:58:46.239Z,14.37
2022-10-05T17:01:37.277Z,14.28
2022-10-05T17:04:23.734Z,14.34
2022-10-05T17:07:23.808Z,14.40
2022-10-05T17:10:41.150Z,14.48
2022-10-05T17:13:36.379Z,14.34
2022-10-05T17:16:14.948Z,14.51
2022-10-05T17:19:16.329Z,14.42
2022-10-05T17:22:00.534Z,14.47
2022-10-05T17:24:50.628Z,14.31
2022-10-05T17:27:32.876Z,14.12
2022-10-05T17:30:46.675Z,14.19
2022-10-05T17:33:27.529Z,14.04
2022-10-05T17:36:20.521Z,13.88
2022-10-05T17:39:12.312Z,13.77
2022-10-05T17:41:41.621Z,13.80
2022-10-05T17:44:26.445Z,13.57
2022-10-05T17:47:14.173Z,13.34
2022-10-05T17:50:17.598Z,13.32
2022-10-05T17:53:23.894Z,13.46
2022-10-05T17:56:05.865Z,13.38
2022-10-05T17:59:00.729Z,13.34
2022-10-05T18:01:33.953Z,13.26
2022-10-05T18:04:42.884Z,13.12
2022-10-05T18:07:25.105Z,13.21
2022-10-05T18:10:20.162Z,13.24
2022-10-05T18:12:52.897Z,13.07
2022-10-05T18:15:48.938Z,13.13
2022-10-05T18:18:57.425Z,13.18
2022-10-05T18:21:38.798Z,13.07
2022-10-05T18:24:53.246Z,12.99
2022-10-05T18:27:48.155Z,12.97
2022-10-05T18:30:23.261Z,12.96
2022-10-05T18:33:40.501Z,12.88
2022-10-05T18:36:40.002Z,12.96
2022-10-05T18:39:25.158Z,12.79
2022-10-05T18:42:11.927Z,12.83
2022-10-05T18:44:46.607Z,12.81
2022-10-05T18:47:25.992Z,12.77
2022-10-05T18:50:27.236Z,12.69
2022-10-05T18:53:20.749Z,12.71
2022-10-05T18:55:59.153Z,12.80
2022-10-05T18:58:40.259Z,12.67
2022-10-05T19:01:54.266Z,12.87
2022-10-05T19:04:37.262Z,12.77
2022-10-05T19:07:14.253Z,12.65
2022-10-05T19:10:04.540Z,12.70
2022-10-05T19:12:47.944Z,12.68
2022-10-05T19:15:28.373Z,12.51
2022-10-05T19:18:41.761Z,12.60
2022-10-05T19:21:26.692Z,12.61
2022-10-05T19:24:26.786Z,12.49
2022-10-05T19:27:07.942Z,12.60
2022-10-05T19:29:55.570Z,12.58
2022-10-05T19:32:34.942Z,12.59
2022-10-05T19:35:22.338Z,12.66
2022-10-05T19:38:06.087Z,12.61
2022-10-05T19:40:44.787Z,12.60
2022-10-05T19:43:38.004Z,12.49
2022-10-05T19:46:19.025Z,12.47
2022-10-05T19:48:54.232Z,12.60
2022-10-05T19:51:30.685Z,12.12
2022-10-05T19:54:04.161Z,12.22
2022-10-05T19:56:35.929Z,12.45
2022-10-05T19:59:20.116Z,12.40
2022-10-05T20:01:53.902Z,12.36
2022-10-05T20:04:42.126Z,12.38
2022-10-05T20:07:15.319Z,12.40
2022-10-05T20:09:58.506Z,12.35
2022-10-05T20:12:52.545Z,12.45
2022-10-05T20:15:43.408Z,12.45
2022-10-05T20:18:57.165Z,12.41
2022-10-05T20:21:46.738Z,12.42
2022-10-05T20:24:19.103Z,12.36
2022-10-05T20:27:05.465Z,12.28
2022-10-05T20:29:37.735Z,12.35
2022-10-05T20:32:12.295Z,12.42
2022-10-05T20:34:43.569Z,12.48
2022-10-05T20:37:15.438Z,12.35
2022-10-05T20:39:47.327Z,12.45
2022-10-05T20:42:16.876Z,12.62
2022-10-05T20:44:47.097Z,12.63
2022-10-05T20:47:17.894Z,12.51
2022-10-05T20:49:47.326Z,12.54
2022-10-05T20:52:16.478Z,12.51
2022-10-05T20:57:24.546Z,12.61
2022-10-05T20:59:53.736Z,12.50
2022-10-05T21:02:24.378Z,12.63
2022-10-05T21:04:53.666Z,12.53
2022-10-05T21:07:23.543Z,12.51
2022-10-05T21:09:55.772Z,12.48
2022-10-05T21:12:25.611Z,12.51
2022-10-05T21:14:55.047Z,12.48
2022-10-05T21:17:25.855Z,12.48
2022-10-05T21:19:55.605Z,12.36
2022-10-05T21:22:26.200Z,12.46
2022-10-05T21:24:56.039Z,12.42
2022-10-05T21:27:25.182Z,12.37
2022-10-05T21:29:54.536Z,12.45
2022-10-05T21:32:25.146Z,12.50
2022-10-05T21:34:54.616Z,12.56
2022-10-05T21:37:23.786Z,12.53
2022-10-05T21:39:53.006Z,12.52
2022-10-05T21:42:23.593Z,12.54
2022-10-05T21:44:52.834Z,12.66
2022-10-05T21:47:22.045Z,12.33
2022-10-05T21:49:52.607Z,12.60
2022-10-05T21:52:22.150Z,12.66
2022-10-05T21:54:51.392Z,12.74
2022-10-05T21:57:20.500Z,12.66
2022-10-05T21:59:50.462Z,12.70
2022-10-05T22:02:19.625Z,12.59
2022-10-05T22:04:48.778Z,12.37
2022-10-05T22:07:21.254Z,12.33
2022-10-05T22:09:51.081Z,12.32
2022-10-05T22:12:21.217Z,12.25
2022-10-05T22:14:50.731Z,12.30
2022-10-05T22:17:24.485Z,12.24
2022-10-05T22:19:54.922Z,11.99
2022-10-05T22:22:26.292Z,12.16
2022-10-05T22:24:56.450Z,12.28
2022-10-05T22:27:29.558Z,12.16
2022-10-05T22:29:59.607Z,12.21
2022-10-05T22:32:28.969Z,12.30
2022-10-05T22:34:58.309Z,12.39
2022-10-05T22:37:28.952Z,12.38
2022-10-05T22:39:58.332Z,12.46
2022-10-05T22:42:27.484Z,12.44
2022-10-05T22:44:56.716Z,12.46
2022-10-05T22:47:25.979Z,12.52
2022-10-05T22:49:55.274Z,12.35
2022-10-05T22:52:24.862Z,12.40
2022-10-05T22:54:55.569Z,12.32
2022-10-05T22:57:24.874Z,12.38
2022-10-05T22:59:54.003Z,12.29
2022-10-05T23:02:23.151Z,12.31
2022-10-05T23:04:52.264Z,12.35
2022-10-05T23:07:21.383Z,12.29
2022-10-05T23:09:50.536Z,12.32
2022-10-05T23:12:21.126Z,12.29
2022-10-05T23:14:50.273Z,12.23
2022-10-05T23:17:21.929Z,12.16
2022-10-05T23:19:51.081Z,12.25
2022-10-05T23:22:20.927Z,12.25
2022-10-05T23:24:50.092Z,12.22
2022-10-05T23:27:20.881Z,12.31
2022-10-05T23:29:50.031Z,12.23
2022-10-05T23:32:19.182Z,12.27
2022-10-05T23:34:48.409Z,12.01
2022-10-05T23:37:19.240Z,12.14
2022-10-05T23:39:48.463Z,12.10
2022-10-05T23:42:17.627Z,12.17
2022-10-05T23:44:48.219Z,12.07
2022-10-05T23:47:17.347Z,12.19
2022-10-05T23:49:46.430Z,12.18
2022-10-05T23:52:15.547Z,12.18
2022-10-05T23:54:44.835Z,12.04
2022-10-05T23:57:18.196Z,11.73
2022-10-05T23:59:50.347Z,12.11
